Piper Inness — WDC3984 — position and weather

sailwx.info

Track history (hours):
 
Tides and Currents Weather Stations Pressure Air Temp Water Temp Dewpoint Dewpoint Depression Visibility Wind Speed Wind Dir Waves Ship Positions

Piper Inness

Owner: Foss Maritime Co, Seattle, WA. More information available from US FCC via Universal Licensing System and Coast Guard Vessel Documentation Center.

Last reported at 2015-Aug-28 05:29 UTC. Time now 2015-Aug-29 12:42 UTC.
Position N 33°46' W 118°13'.

; draft 2 m.

Type: Other ship. MMSI: 367017440.

Date/timePositionNaut miles runAvg speedWind from/ knotsBaromVisibWave heightAir tempDewpointWater temp
2015-Aug-28 05:29N 33°46' W 118°13'910.2
2015-Aug-28 04:33N 33°38' W 118°08'1817.6
2015-Aug-28 03:33N 33°21' W 118°01'1615.9
2015-Aug-28 02:33N 33°06' W 117°55'2 1.7
2015-Aug-28 01:34N 33°06' W 117°53'2 1.9
2015-Aug-28 00:33N 33°05' W 117°51'2 1.5
2015-Aug-27 23:33N 33°04' W 117°49'1 0.9
2015-Aug-27 22:33N 33°03' W 117°49'1 0.9
2015-Aug-27 21:34N 33°03' W 117°48'1 1.1
2015-Aug-27 20:33N 33°02' W 117°47'1 0.5
2015-Aug-27 19:33N 33°01' W 117°47'1 1.3
2015-Aug-27 18:33N 33°01' W 117°45'0 0.4
2015-Aug-27 17:33N 33°00' W 117°46'3 2.8
2015-Aug-27 16:33N 32°58' W 117°43'1 1.0
2015-Aug-27 15:33N 32°58' W 117°44'1 0.5
2015-Aug-27 14:33N 32°58' W 117°45'0 0.2
2015-Aug-27 13:33N 32°58' W 117°45'0 0.3
2015-Aug-27 12:33N 32°58' W 117°45'1 0.8
2015-Aug-27 11:33N 32°57' W 117°46'0 0.3
2015-Aug-27 10:33N 32°57' W 117°46'1 0.6
2015-Aug-27 09:33N 32°57' W 117°47'1 0.6
2015-Aug-27 08:33N 32°57' W 117°46'1 0.8
2015-Aug-27 07:33N 32°56' W 117°45'1 1.5
2015-Aug-27 06:33N 32°57' W 117°47'1 0.8
2015-Aug-27 05:33N 32°58' W 117°47'5 4.5
2015-Aug-27 04:33N 33°02' W 117°50'4 3.7
2015-Aug-27 03:33N 33°05' W 117°53'5 5.4
2015-Aug-27 02:33N 33°09' W 117°57'1 0.7
2015-Aug-27 01:33N 33°10' W 117°57'9 9.1
2015-Aug-27 00:33N 33°10' W 118°07'1615.8
2015-Aug-26 23:33N 33°25' W 118°05'1716.5
2015-Aug-26 22:33N 33°41' W 118°10'5 5.4
2015-Aug-26 21:33N 33°46' W 118°13'0 0.0
2015-Aug-26 20:30N 33°46' W 118°13'0 0.0
2015-Aug-26 19:33N 33°46' W 118°13'0 0.0
2015-Aug-26 18:21N 33°46' W 118°13'0 0.0
2015-Aug-26 17:27N 33°46' W 118°13'0 0.0
2015-Aug-26 16:33N 33°46' W 118°13'0 0.0
2015-Aug-26 15:33N 33°46' W 118°13'0 0.0
2015-Aug-26 14:33N 33°46' W 118°13'0 0.0
2015-Aug-26 13:33N 33°46' W 118°13'0 0.0
2015-Aug-26 12:33N 33°46' W 118°13'0 0.0
2015-Aug-26 11:33N 33°46' W 118°13'0 0.0
2015-Aug-26 10:33N 33°46' W 118°13'0 0.0
2015-Aug-26 09:33N 33°46' W 118°13'0 0.0
2015-Aug-26 08:33N 33°46' W 118°13'0 0.0
2015-Aug-26 07:33N 33°46' W 118°13'0 0.0
2015-Aug-26 06:33N 33°46' W 118°13'0 0.0
2015-Aug-26 05:33N 33°46' W 118°13'0 0.0
2015-Aug-26 04:33N 33°46' W 118°13'0 0.0
2015-Aug-26 03:33N 33°46' W 118°13'0 0.0
2015-Aug-26 02:33N 33°46' W 118°13'0 0.0
2015-Aug-26 01:33N 33°46' W 118°13'0 0.0
2015-Aug-26 00:33N 33°46' W 118°13'0 0.0
2015-Aug-25 23:32N 33°46' W 118°13'0 0.0
2015-Aug-25 22:33N 33°46' W 118°13'0 0.2
2015-Aug-25 21:33N 33°46' W 118°13'1613.4
2015-Aug-25 20:22N 33°32' W 118°04'1417.3
2015-Aug-25 19:33N 33°20' W 117°56'1514.9
2015-Aug-25 18:33N 33°06' W 117°48'1 1.3
2015-Aug-25 17:33N 33°05' W 117°49'1 1.1
2015-Aug-25 16:33N 33°04' W 117°49'1 1.0
2015-Aug-25 15:33N 33°03' W 117°50'2 1.5
2015-Aug-25 14:33N 33°03' W 117°48'2 1.9
2015-Aug-25 13:33N 33°01' W 117°48'1 1.3
2015-Aug-25 12:33N 32°60' W 117°48'1 1.2
2015-Aug-25 11:33N 32°59' W 117°49'1 1.5
2015-Aug-25 10:33N 32°57' W 117°48'1 1.2
2015-Aug-25 09:33N 32°56' W 117°49'2 2.0
2015-Aug-25 08:33N 32°54' W 117°49'0 0.4
2015-Aug-25 07:33N 32°54' W 117°49'3 2.8
2015-Aug-25 06:34N 32°51' W 117°48'0 0.5
2015-Aug-25 05:33N 32°51' W 117°48'1 1.1
2015-Aug-25 04:33N 32°50' W 117°47'1 0.6
2015-Aug-25 03:33N 32°50' W 117°47'2 1.7
2015-Aug-25 02:33N 32°48' W 117°47'3 3.4
2015-Aug-25 01:33N 32°45' W 117°45'3 3.4
2015-Aug-25 00:33N 32°43' W 117°42'2 2.4
2015-Aug-24 23:33N 32°41' W 117°40'7 7.2
2015-Aug-24 22:33N 32°40' W 117°31'1110.5
2015-Aug-24 21:31N 32°37' W 117°19'1 0.8
2015-Aug-24 20:33N 32°38' W 117°19'1717.1
2015-Aug-24 19:33N 32°51' W 117°32'1716.7
2015-Aug-24 18:34N 33°05' W 117°44'1414.4
2015-Aug-24 17:34N 33°17' W 117°53'1716.6
2015-Aug-24 16:33N 33°31' W 118°04'1515.4
2015-Aug-24 15:33N 33°44' W 118°13'2 1.8
2015-Aug-24 14:30N 33°46' W 118°13'1 0.7
2015-Aug-24 13:33N 33°46' W 118°13'1 0.7
2015-Aug-24 12:33N 33°46' W 118°13'0 0.0
2015-Aug-24 11:33N 33°46' W 118°13'0 0.0
2015-Aug-24 10:33N 33°46' W 118°13'0 0.0
2015-Aug-24 09:33N 33°46' W 118°13'0 0.0
2015-Aug-24 08:33N 33°46' W 118°13'0 0.0
2015-Aug-24 07:33N 33°46' W 118°13'0 0.0
2015-Aug-24 06:33N 33°46' W 118°13'0 0.0
2015-Aug-24 05:33N 33°46' W 118°13'0 0.0
2015-Aug-24 04:33N 33°46' W 118°13'0 0.0
2015-Aug-24 03:33N 33°46' W 118°13'0 0.0
2015-Aug-24 02:33N 33°46' W 118°13'0 0.0
2015-Aug-24 01:33N 33°46' W 118°13'0 0.0
2015-Aug-24 00:33N 33°46' W 118°13'0 0.0
2015-Aug-23 23:33N 33°46' W 118°13'0 0.0
2015-Aug-23 22:33N 33°46' W 118°13'0 0.0
2015-Aug-23 21:33N 33°46' W 118°13'0 0.0
2015-Aug-23 20:33N 33°46' W 118°13'0 0.0
2015-Aug-23 19:33N 33°46' W 118°13'0 0.0
2015-Aug-23 18:33N 33°46' W 118°13'0 0.0
2015-Aug-23 17:33N 33°46' W 118°13'0 0.0
2015-Aug-23 16:33N 33°46' W 118°13'0 0.0
2015-Aug-23 15:33N 33°46' W 118°13'0 0.0
2015-Aug-23 14:33N 33°46' W 118°13'0 0.0
2015-Aug-23 13:33N 33°46' W 118°13'0 0.0
2015-Aug-23 12:33N 33°46' W 118°13'0 0.0
2015-Aug-23 11:33N 33°46' W 118°13'0 0.0
2015-Aug-23 10:33N 33°46' W 118°13'0 0.0
2015-Aug-23 09:33N 33°46' W 118°13'0 0.0
2015-Aug-23 08:34N 33°46' W 118°13'0 0.0
2015-Aug-23 07:33N 33°46' W 118°13'0 0.0
2015-Aug-23 06:33N 33°46' W 118°13'0 0.0
2015-Aug-23 05:33N 33°46' W 118°13'0 0.0
2015-Aug-23 04:33N 33°46' W 118°13'0 0.0
2015-Aug-23 03:33N 33°46' W 118°13'0 0.0
2015-Aug-23 02:33N 33°46' W 118°13'0 0.0
2015-Aug-23 01:33N 33°46' W 118°13'0 0.0
2015-Aug-23 00:33N 33°46' W 118°13'0 0.0
2015-Aug-22 23:33N 33°46' W 118°13'0 0.0
2015-Aug-22 22:33N 33°46' W 118°13'0 0.0
2015-Aug-22 21:33N 33°46' W 118°13'0 0.0
2015-Aug-22 20:34N 33°46' W 118°13'0 0.0
2015-Aug-22 19:33N 33°46' W 118°13'0 0.0
2015-Aug-22 18:33N 33°46' W 118°13'0 0.0
2015-Aug-22 17:33N 33°46' W 118°13'2812.0
2015-Aug-22 15:12N 33°21' W 117°58'1117.1
2015-Aug-22 14:34N 33°11' W 117°52'0 0.1
2015-Aug-22 13:33N 33°11' W 117°52'3 3.0
2015-Aug-22 12:33N 33°08' W 117°51'1 1.5
2015-Aug-22 11:33N 33°07' W 117°52'2 1.6
2015-Aug-22 10:33N 33°05' W 117°51'2 1.9
2015-Aug-22 09:33N 33°04' W 117°50'1 0.8
2015-Aug-22 08:33N 33°04' W 117°51'1 1.3
2015-Aug-22 07:33N 33°03' W 117°50'1 0.6
2015-Aug-22 06:33N 33°03' W 117°50'2 1.4
2015-Aug-22 05:27N 33°02' W 117°48'0 0.4
2015-Aug-22 04:33N 33°01' W 117°48'1 0.8
2015-Aug-22 03:33N 33°01' W 117°48'1 1.0
2015-Aug-22 02:23N 33°01' W 117°49'2 2.1
2015-Aug-22 01:33N 33°02' W 117°47'1 1.0
2015-Aug-22 00:33N 33°01' W 117°48'0 0.3
2015-Aug-21 23:34N 33°01' W 117°48'1 0.6
2015-Aug-21 22:33N 33°01' W 117°48'0 0.2
2015-Aug-21 21:34N 33°01' W 117°47'1 0.9
2015-Aug-21 20:33N 33°00' W 117°47'2 1.6
2015-Aug-21 19:33N 32°60' W 117°45'1 1.5
2015-Aug-21 18:33N 32°59' W 117°43'2 2.2
2015-Aug-21 17:33N 32°57' W 117°43'0 0.4
2015-Aug-21 16:33N 32°57' W 117°43'0 0.5
2015-Aug-21 15:33N 32°57' W 117°44'1 1.0
2015-Aug-21 14:33N 32°57' W 117°45'1 1.1
2015-Aug-21 13:33N 32°58' W 117°46'1 0.9
2015-Aug-21 12:33N 32°59' W 117°47'3 2.7
2015-Aug-21 11:33N 33°01' W 117°48'5 5.0
2015-Aug-21 10:33N 33°05' W 117°52'4 3.9
2015-Aug-21 09:33N 33°08' W 117°54'2 2.0
2015-Aug-21 08:33N 33°10' W 117°54'5 4.7
2015-Aug-21 07:33N 33°12' W 117°60'3215.5
2015-Aug-21 05:29N 33°43' W 118°11'4 4.3
2015-Aug-21 04:34N 33°46' W 118°13'0 0.0
2015-Aug-21 03:33N 33°46' W 118°13'0 0.0
2015-Aug-21 02:33N 33°46' W 118°13'0 0.0
2015-Aug-21 01:33N 33°46' W 118°13'0 0.0
2015-Aug-21 00:33N 33°46' W 118°13'0 0.0
2015-Aug-20 23:33N 33°46' W 118°13'0 0.0
2015-Aug-20 22:33N 33°46' W 118°13'0 0.0
2015-Aug-20 21:33N 33°46' W 118°13'0 0.0
2015-Aug-20 20:33N 33°46' W 118°13'0 0.0
2015-Aug-20 19:33N 33°46' W 118°13'0 0.0
2015-Aug-20 18:33N 33°46' W 118°13'0 0.0
2015-Aug-20 17:33N 33°46' W 118°13'0 0.0
2015-Aug-20 16:33N 33°46' W 118°13'0 0.0
2015-Aug-20 15:33N 33°46' W 118°13'0 0.0
2015-Aug-20 14:33N 33°46' W 118°13'0 0.0
2015-Aug-20 13:33N 33°46' W 118°13'0 0.0
2015-Aug-20 12:33N 33°46' W 118°13'0 0.0
2015-Aug-20 11:33N 33°46' W 118°13'0 0.0
2015-Aug-20 10:33N 33°46' W 118°13'0 0.0
2015-Aug-20 09:33N 33°46' W 118°13'0 0.0
2015-Aug-20 08:33N 33°46' W 118°13'0 0.0
2015-Aug-20 07:33N 33°46' W 118°13'0 0.0
2015-Aug-20 06:33N 33°46' W 118°13'0 0.0
2015-Aug-20 05:33N 33°46' W 118°13'0 0.0
2015-Aug-20 04:33N 33°46' W 118°13'0 0.0
2015-Aug-20 03:33N 33°46' W 118°13'0 0.0
2015-Aug-20 02:33N 33°46' W 118°13'0 0.0
2015-Aug-20 01:33N 33°46' W 118°13'0 0.0
2015-Aug-20 00:33N 33°46' W 118°13'0 0.0
2015-Aug-19 23:33N 33°46' W 118°13'0 0.0
2015-Aug-19 22:33N 33°46' W 118°13'0 0.0
2015-Aug-19 21:33N 33°46' W 118°13'0 0.0
2015-Aug-19 20:33N 33°46' W 118°13'0 0.0
2015-Aug-19 19:33N 33°46' W 118°13'0 0.0
2015-Aug-19 18:33N 33°46' W 118°13'0 0.0
2015-Aug-19 17:33N 33°46' W 118°13'0 0.0
2015-Aug-19 16:33N 33°46' W 118°13'0 0.0
2015-Aug-19 15:33N 33°46' W 118°13'0 0.0
2015-Aug-19 14:33N 33°46' W 118°13'0 0.0
2015-Aug-19 13:33N 33°46' W 118°13'0 0.0
2015-Aug-19 12:33N 33°46' W 118°13'0 0.0
2015-Aug-19 11:33N 33°46' W 118°13'0 0.0
2015-Aug-19 10:33N 33°46' W 118°13'0 0.0
2015-Aug-19 09:33N 33°46' W 118°13'0 0.0
2015-Aug-19 08:33N 33°46' W 118°13'0 0.0
2015-Aug-19 07:33N 33°46' W 118°13'0 0.0
2015-Aug-19 06:33N 33°46' W 118°13'0 0.0
2015-Aug-19 05:33N 33°46' W 118°13'0 0.0
2015-Aug-19 04:33N 33°46' W 118°13'0 0.0
2015-Aug-19 03:33N 33°46' W 118°13'0 0.0
2015-Aug-19 02:33N 33°46' W 118°13'0 0.0
2015-Aug-19 01:33N 33°46' W 118°13'0 0.0
2015-Aug-19 00:33N 33°46' W 118°13'0 0.0
2015-Aug-18 23:33N 33°46' W 118°13'0 0.0
2015-Aug-18 22:33N 33°46' W 118°13'0 0.0
2015-Aug-18 21:33N 33°46' W 118°13'0 0.0
2015-Aug-18 20:33N 33°46' W 118°13'0 0.0
2015-Aug-18 19:33N 33°46' W 118°13'0 0.0
2015-Aug-18 18:33N 33°46' W 118°13'0 0.0
2015-Aug-18 17:33N 33°46' W 118°13'0 0.0
2015-Aug-18 16:33N 33°46' W 118°13'0 0.0
2015-Aug-18 15:33N 33°46' W 118°13'0 0.0
2015-Aug-18 14:33N 33°46' W 118°13'0 0.0
2015-Aug-18 13:33N 33°46' W 118°13'0 0.0
2015-Aug-18 12:33N 33°46' W 118°13'0 0.0
2015-Aug-18 11:33N 33°46' W 118°13'0 0.0
2015-Aug-18 10:33N 33°46' W 118°13'0 0.0
2015-Aug-18 09:33N 33°46' W 118°13'0 0.0
2015-Aug-18 08:33N 33°46' W 118°13'0 0.0
2015-Aug-18 07:33N 33°46' W 118°13'0 0.0
2015-Aug-18 06:33N 33°46' W 118°13'0 0.0
2015-Aug-18 05:33N 33°46' W 118°13'  
Track history (hours):
 
Tides and Currents Weather Stations Pressure Air Temp Water Temp Dewpoint Dewpoint Depression Visibility Wind Speed Wind Dir Waves Ship Positions

Piper Inness

Owner: Foss Maritime Co, Seattle, WA. More information available from US FCC via Universal Licensing System and Coast Guard Vessel Documentation Center.

Last reported at 2015-Aug-28 05:29 UTC. Time now 2015-Aug-29 12:42 UTC.
Position N 33°46' W 118°13'.

; draft 2 m.

Type: Other ship. MMSI: 367017440.

Date/timePositionNaut miles runAvg speedWind from/ knotsBaromVisibWave heightAir tempDewpointWater temp
2015-Aug-28 05:29N 33°46' W 118°13'910.2
2015-Aug-28 04:33N 33°38' W 118°08'1817.6
2015-Aug-28 03:33N 33°21' W 118°01'1615.9
2015-Aug-28 02:33N 33°06' W 117°55'2 1.7
2015-Aug-28 01:34N 33°06' W 117°53'2 1.9
2015-Aug-28 00:33N 33°05' W 117°51'2 1.5
2015-Aug-27 23:33N 33°04' W 117°49'1 0.9
2015-Aug-27 22:33N 33°03' W 117°49'1 0.9
2015-Aug-27 21:34N 33°03' W 117°48'1 1.1
2015-Aug-27 20:33N 33°02' W 117°47'1 0.5
2015-Aug-27 19:33N 33°01' W 117°47'1 1.3
2015-Aug-27 18:33N 33°01' W 117°45'0 0.4
2015-Aug-27 17:33N 33°00' W 117°46'3 2.8
2015-Aug-27 16:33N 32°58' W 117°43'1 1.0
2015-Aug-27 15:33N 32°58' W 117°44'1 0.5
2015-Aug-27 14:33N 32°58' W 117°45'0 0.2
2015-Aug-27 13:33N 32°58' W 117°45'0 0.3
2015-Aug-27 12:33N 32°58' W 117°45'1 0.8
2015-Aug-27 11:33N 32°57' W 117°46'0 0.3
2015-Aug-27 10:33N 32°57' W 117°46'1 0.6
2015-Aug-27 09:33N 32°57' W 117°47'1 0.6
2015-Aug-27 08:33N 32°57' W 117°46'1 0.8
2015-Aug-27 07:33N 32°56' W 117°45'1 1.5
2015-Aug-27 06:33N 32°57' W 117°47'1 0.8
2015-Aug-27 05:33N 32°58' W 117°47'5 4.5
2015-Aug-27 04:33N 33°02' W 117°50'4 3.7
2015-Aug-27 03:33N 33°05' W 117°53'5 5.4
2015-Aug-27 02:33N 33°09' W 117°57'1 0.7
2015-Aug-27 01:33N 33°10' W 117°57'9 9.1
2015-Aug-27 00:33N 33°10' W 118°07'1615.8
2015-Aug-26 23:33N 33°25' W 118°05'1716.5
2015-Aug-26 22:33N 33°41' W 118°10'5 5.4
2015-Aug-26 21:33N 33°46' W 118°13'0 0.0
2015-Aug-26 20:30N 33°46' W 118°13'0 0.0
2015-Aug-26 19:33N 33°46' W 118°13'0 0.0
2015-Aug-26 18:21N 33°46' W 118°13'0 0.0
2015-Aug-26 17:27N 33°46' W 118°13'0 0.0
2015-Aug-26 16:33N 33°46' W 118°13'0 0.0
2015-Aug-26 15:33N 33°46' W 118°13'0 0.0
2015-Aug-26 14:33N 33°46' W 118°13'0 0.0
2015-Aug-26 13:33N 33°46' W 118°13'0 0.0
2015-Aug-26 12:33N 33°46' W 118°13'0 0.0
2015-Aug-26 11:33N 33°46' W 118°13'0 0.0
2015-Aug-26 10:33N 33°46' W 118°13'0 0.0
2015-Aug-26 09:33N 33°46' W 118°13'0 0.0
2015-Aug-26 08:33N 33°46' W 118°13'0 0.0
2015-Aug-26 07:33N 33°46' W 118°13'0 0.0
2015-Aug-26 06:33N 33°46' W 118°13'0 0.0
2015-Aug-26 05:33N 33°46' W 118°13'0 0.0
2015-Aug-26 04:33N 33°46' W 118°13'0 0.0
2015-Aug-26 03:33N 33°46' W 118°13'0 0.0
2015-Aug-26 02:33N 33°46' W 118°13'0 0.0
2015-Aug-26 01:33N 33°46' W 118°13'0 0.0
2015-Aug-26 00:33N 33°46' W 118°13'0 0.0
2015-Aug-25 23:32N 33°46' W 118°13'0 0.0
2015-Aug-25 22:33N 33°46' W 118°13'0 0.2
2015-Aug-25 21:33N 33°46' W 118°13'1613.4
2015-Aug-25 20:22N 33°32' W 118°04'1417.3
2015-Aug-25 19:33N 33°20' W 117°56'1514.9
2015-Aug-25 18:33N 33°06' W 117°48'1 1.3
2015-Aug-25 17:33N 33°05' W 117°49'1 1.1
2015-Aug-25 16:33N 33°04' W 117°49'1 1.0
2015-Aug-25 15:33N 33°03' W 117°50'2 1.5
2015-Aug-25 14:33N 33°03' W 117°48'2 1.9
2015-Aug-25 13:33N 33°01' W 117°48'1 1.3
2015-Aug-25 12:33N 32°60' W 117°48'1 1.2
2015-Aug-25 11:33N 32°59' W 117°49'1 1.5
2015-Aug-25 10:33N 32°57' W 117°48'1 1.2
2015-Aug-25 09:33N 32°56' W 117°49'2 2.0
2015-Aug-25 08:33N 32°54' W 117°49'0 0.4
2015-Aug-25 07:33N 32°54' W 117°49'3 2.8
2015-Aug-25 06:34N 32°51' W 117°48'0 0.5
2015-Aug-25 05:33N 32°51' W 117°48'1 1.1
2015-Aug-25 04:33N 32°50' W 117°47'1 0.6
2015-Aug-25 03:33N 32°50' W 117°47'2 1.7
2015-Aug-25 02:33N 32°48' W 117°47'3 3.4
2015-Aug-25 01:33N 32°45' W 117°45'3 3.4
2015-Aug-25 00:33N 32°43' W 117°42'2 2.4
2015-Aug-24 23:33N 32°41' W 117°40'7 7.2
2015-Aug-24 22:33N 32°40' W 117°31'1110.5
2015-Aug-24 21:31N 32°37' W 117°19'1 0.8
2015-Aug-24 20:33N 32°38' W 117°19'1717.1
2015-Aug-24 19:33N 32°51' W 117°32'1716.7
2015-Aug-24 18:34N 33°05' W 117°44'1414.4
2015-Aug-24 17:34N 33°17' W 117°53'1716.6
2015-Aug-24 16:33N 33°31' W 118°04'1515.4
2015-Aug-24 15:33N 33°44' W 118°13'2 1.8
2015-Aug-24 14:30N 33°46' W 118°13'1 0.7
2015-Aug-24 13:33N 33°46' W 118°13'1 0.7
2015-Aug-24 12:33N 33°46' W 118°13'0 0.0
2015-Aug-24 11:33N 33°46' W 118°13'0 0.0
2015-Aug-24 10:33N 33°46' W 118°13'0 0.0
2015-Aug-24 09:33N 33°46' W 118°13'0 0.0
2015-Aug-24 08:33N 33°46' W 118°13'0 0.0
2015-Aug-24 07:33N 33°46' W 118°13'0 0.0
2015-Aug-24 06:33N 33°46' W 118°13'0 0.0
2015-Aug-24 05:33N 33°46' W 118°13'0 0.0
2015-Aug-24 04:33N 33°46' W 118°13'0 0.0
2015-Aug-24 03:33N 33°46' W 118°13'0 0.0
2015-Aug-24 02:33N 33°46' W 118°13'0 0.0
2015-Aug-24 01:33N 33°46' W 118°13'0 0.0
2015-Aug-24 00:33N 33°46' W 118°13'0 0.0
2015-Aug-23 23:33N 33°46' W 118°13'0 0.0
2015-Aug-23 22:33N 33°46' W 118°13'0 0.0
2015-Aug-23 21:33N 33°46' W 118°13'0 0.0
2015-Aug-23 20:33N 33°46' W 118°13'0 0.0
2015-Aug-23 19:33N 33°46' W 118°13'0 0.0
2015-Aug-23 18:33N 33°46' W 118°13'0 0.0
2015-Aug-23 17:33N 33°46' W 118°13'0 0.0
2015-Aug-23 16:33N 33°46' W 118°13'0 0.0
2015-Aug-23 15:33N 33°46' W 118°13'0 0.0
2015-Aug-23 14:33N 33°46' W 118°13'0 0.0
2015-Aug-23 13:33N 33°46' W 118°13'0 0.0
2015-Aug-23 12:33N 33°46' W 118°13'0 0.0
2015-Aug-23 11:33N 33°46' W 118°13'0 0.0
2015-Aug-23 10:33N 33°46' W 118°13'0 0.0
2015-Aug-23 09:33N 33°46' W 118°13'0 0.0
2015-Aug-23 08:34N 33°46' W 118°13'0 0.0
2015-Aug-23 07:33N 33°46' W 118°13'0 0.0
2015-Aug-23 06:33N 33°46' W 118°13'0 0.0
2015-Aug-23 05:33N 33°46' W 118°13'0 0.0
2015-Aug-23 04:33N 33°46' W 118°13'0 0.0
2015-Aug-23 03:33N 33°46' W 118°13'0 0.0
2015-Aug-23 02:33N 33°46' W 118°13'0 0.0
2015-Aug-23 01:33N 33°46' W 118°13'0 0.0
2015-Aug-23 00:33N 33°46' W 118°13'0 0.0
2015-Aug-22 23:33N 33°46' W 118°13'0 0.0
2015-Aug-22 22:33N 33°46' W 118°13'0 0.0
2015-Aug-22 21:33N 33°46' W 118°13'0 0.0
2015-Aug-22 20:34N 33°46' W 118°13'0 0.0
2015-Aug-22 19:33N 33°46' W 118°13'0 0.0
2015-Aug-22 18:33N 33°46' W 118°13'0 0.0
2015-Aug-22 17:33N 33°46' W 118°13'2812.0
2015-Aug-22 15:12N 33°21' W 117°58'1117.1
2015-Aug-22 14:34N 33°11' W 117°52'0 0.1
2015-Aug-22 13:33N 33°11' W 117°52'3 3.0
2015-Aug-22 12:33N 33°08' W 117°51'1 1.5
2015-Aug-22 11:33N 33°07' W 117°52'2 1.6
2015-Aug-22 10:33N 33°05' W 117°51'2 1.9
2015-Aug-22 09:33N 33°04' W 117°50'1 0.8
2015-Aug-22 08:33N 33°04' W 117°51'1 1.3
2015-Aug-22 07:33N 33°03' W 117°50'1 0.6
2015-Aug-22 06:33N 33°03' W 117°50'2 1.4
2015-Aug-22 05:27N 33°02' W 117°48'0 0.4
2015-Aug-22 04:33N 33°01' W 117°48'1 0.8
2015-Aug-22 03:33N 33°01' W 117°48'1 1.0
2015-Aug-22 02:23N 33°01' W 117°49'2 2.1
2015-Aug-22 01:33N 33°02' W 117°47'1 1.0
2015-Aug-22 00:33N 33°01' W 117°48'0 0.3
2015-Aug-21 23:34N 33°01' W 117°48'1 0.6
2015-Aug-21 22:33N 33°01' W 117°48'0 0.2
2015-Aug-21 21:34N 33°01' W 117°47'1 0.9
2015-Aug-21 20:33N 33°00' W 117°47'2 1.6
2015-Aug-21 19:33N 32°60' W 117°45'1 1.5
2015-Aug-21 18:33N 32°59' W 117°43'2 2.2
2015-Aug-21 17:33N 32°57' W 117°43'0 0.4
2015-Aug-21 16:33N 32°57' W 117°43'0 0.5
2015-Aug-21 15:33N 32°57' W 117°44'1 1.0
2015-Aug-21 14:33N 32°57' W 117°45'1 1.1
2015-Aug-21 13:33N 32°58' W 117°46'1 0.9
2015-Aug-21 12:33N 32°59' W 117°47'3 2.7
2015-Aug-21 11:33N 33°01' W 117°48'5 5.0
2015-Aug-21 10:33N 33°05' W 117°52'4 3.9
2015-Aug-21 09:33N 33°08' W 117°54'2 2.0
2015-Aug-21 08:33N 33°10' W 117°54'5 4.7
2015-Aug-21 07:33N 33°12' W 117°60'3215.5
2015-Aug-21 05:29N 33°43' W 118°11'4 4.3
2015-Aug-21 04:34N 33°46' W 118°13'0 0.0
2015-Aug-21 03:33N 33°46' W 118°13'0 0.0
2015-Aug-21 02:33N 33°46' W 118°13'0 0.0
2015-Aug-21 01:33N 33°46' W 118°13'0 0.0
2015-Aug-21 00:33N 33°46' W 118°13'0 0.0
2015-Aug-20 23:33N 33°46' W 118°13'0 0.0
2015-Aug-20 22:33N 33°46' W 118°13'0 0.0
2015-Aug-20 21:33N 33°46' W 118°13'0 0.0
2015-Aug-20 20:33N 33°46' W 118°13'0 0.0
2015-Aug-20 19:33N 33°46' W 118°13'0 0.0
2015-Aug-20 18:33N 33°46' W 118°13'0 0.0
2015-Aug-20 17:33N 33°46' W 118°13'0 0.0
2015-Aug-20 16:33N 33°46' W 118°13'0 0.0
2015-Aug-20 15:33N 33°46' W 118°13'0 0.0
2015-Aug-20 14:33N 33°46' W 118°13'0 0.0
2015-Aug-20 13:33N 33°46' W 118°13'0 0.0
2015-Aug-20 12:33N 33°46' W 118°13'0 0.0
2015-Aug-20 11:33N 33°46' W 118°13'0 0.0
2015-Aug-20 10:33N 33°46' W 118°13'0 0.0
2015-Aug-20 09:33N 33°46' W 118°13'0 0.0
2015-Aug-20 08:33N 33°46' W 118°13'0 0.0
2015-Aug-20 07:33N 33°46' W 118°13'0 0.0
2015-Aug-20 06:33N 33°46' W 118°13'0 0.0
2015-Aug-20 05:33N 33°46' W 118°13'0 0.0
2015-Aug-20 04:33N 33°46' W 118°13'0 0.0
2015-Aug-20 03:33N 33°46' W 118°13'0 0.0
2015-Aug-20 02:33N 33°46' W 118°13'0 0.0
2015-Aug-20 01:33N 33°46' W 118°13'0 0.0
2015-Aug-20 00:33N 33°46' W 118°13'0 0.0
2015-Aug-19 23:33N 33°46' W 118°13'0 0.0
2015-Aug-19 22:33N 33°46' W 118°13'0 0.0
2015-Aug-19 21:33N 33°46' W 118°13'0 0.0
2015-Aug-19 20:33N 33°46' W 118°13'0 0.0
2015-Aug-19 19:33N 33°46' W 118°13'0 0.0
2015-Aug-19 18:33N 33°46' W 118°13'0 0.0
2015-Aug-19 17:33N 33°46' W 118°13'0 0.0
2015-Aug-19 16:33N 33°46' W 118°13'0 0.0
2015-Aug-19 15:33N 33°46' W 118°13'0 0.0
2015-Aug-19 14:33N 33°46' W 118°13'0 0.0
2015-Aug-19 13:33N 33°46' W 118°13'0 0.0
2015-Aug-19 12:33N 33°46' W 118°13'0 0.0
2015-Aug-19 11:33N 33°46' W 118°13'0 0.0
2015-Aug-19 10:33N 33°46' W 118°13'0 0.0
2015-Aug-19 09:33N 33°46' W 118°13'0 0.0
2015-Aug-19 08:33N 33°46' W 118°13'0 0.0
2015-Aug-19 07:33N 33°46' W 118°13'0 0.0
2015-Aug-19 06:33N 33°46' W 118°13'0 0.0
2015-Aug-19 05:33N 33°46' W 118°13'0 0.0
2015-Aug-19 04:33N 33°46' W 118°13'0 0.0
2015-Aug-19 03:33N 33°46' W 118°13'0 0.0
2015-Aug-19 02:33N 33°46' W 118°13'0 0.0
2015-Aug-19 01:33N 33°46' W 118°13'0 0.0
2015-Aug-19 00:33N 33°46' W 118°13'0 0.0
2015-Aug-18 23:33N 33°46' W 118°13'0 0.0
2015-Aug-18 22:33N 33°46' W 118°13'0 0.0
2015-Aug-18 21:33N 33°46' W 118°13'0 0.0
2015-Aug-18 20:33N 33°46' W 118°13'0 0.0
2015-Aug-18 19:33N 33°46' W 118°13'0 0.0
2015-Aug-18 18:33N 33°46' W 118°13'0 0.0
2015-Aug-18 17:33N 33°46' W 118°13'0 0.0
2015-Aug-18 16:33N 33°46' W 118°13'0 0.0
2015-Aug-18 15:33N 33°46' W 118°13'0 0.0
2015-Aug-18 14:33N 33°46' W 118°13'0 0.0
2015-Aug-18 13:33N 33°46' W 118°13'0 0.0
2015-Aug-18 12:33N 33°46' W 118°13'0 0.0
2015-Aug-18 11:33N 33°46' W 118°13'0 0.0
2015-Aug-18 10:33N 33°46' W 118°13'0 0.0
2015-Aug-18 09:33N 33°46' W 118°13'0 0.0
2015-Aug-18 08:33N 33°46' W 118°13'0 0.0
2015-Aug-18 07:33N 33°46' W 118°13'0 0.0
2015-Aug-18 06:33N 33°46' W 118°13'0 0.0
2015-Aug-18 05:33N 33°46' W 118°13'  

Dump ship's entire track history